PWSweather.com
Personal Weather Stations
Station Observations
WATERF01
WaterfordIE

WaterfordIE

Lat: 52.2412507, Lon: -7.1414691

Elevation: 65

Station Type: Davis Vantage Vue

Latest ConditionsUpdated 6:40:01 PM GMT Wednesday, May 25, 2016
Currently Today's Max Today's Min Today's Average
Temperature 53.9°F12.2°C 54.9°F12.7°C 51.0°F10.6°C 53.0°F11.7°C
Dew Point 41.2°F5.1°C 48.1°F8.9°C 39.8°F4.3°C 43.4°F6.3°C
Winds 3.5 mph E5.6 kmh E 12.7 mph ENE20.4 kmh ENE - 5.9 mph 9.5 kmh
Wind Gusts 9.2 mph14.8 kmh 21.9 mph35.2 kmh - -
Humidity 62% 85% 58% 70%
Pressure 30.07 in1018.3 mb 30.13 in1020.3 mb 30.07 in1018.3 mb -
Hour Temp Dew Point Humidity Winds Wind Gusts Pressure Precip Precip Rate Daily Precip Total
06:40 PM 53.9°F12.2°C 41.2°F5.1°C 62% 3.5 mph E5.6 kmh E 9.2 mph14.8 kmh 30.07 in1018.3 mb - 0.00 in0.0 mm 0.00 in0.0 mm
06:30 PM 54.5°F12.5°C 42.2°F5.7°C 63% 2.3 mph ENE3.7 kmh ENE 4.6 mph7.4 kmh 30.07 in1018.3 mb - 0.00 in0.0 mm 0.00 in0.0 mm
06:20 PM 54.7°F12.6°C 41.9°F5.5°C 62% 6.9 mph E11.1 kmh E 15.0 mph24.1 kmh 30.07 in1018.3 mb - 0.00 in0.0 mm 0.00 in0.0 mm
06:10 PM 54.4°F12.4°C 40.8°F4.9°C 60% 6.9 mph E11.1 kmh E 13.8 mph22.2 kmh 30.07 in1018.3 mb - 0.00 in0.0 mm 0.00 in0.0 mm
06:00 PM 54.2°F12.3°C 40.6°F4.8°C 60% 8.1 mph E13.0 kmh E 11.5 mph18.5 kmh 30.07 in1018.3 mb - 0.00 in0.0 mm 0.00 in0.0 mm
05:50 PM 54.6°F12.6°C 41.0°F5.0°C 60% 11.5 mph E18.5 kmh E 18.4 mph29.6 kmh 30.07 in1018.3 mb - 0.00 in0.0 mm 0.00 in0.0 mm
05:40 PM 54.1°F12.3°C 40.1°F4.5°C 59% 6.9 mph E11.1 kmh E 12.7 mph20.4 kmh 30.07 in1018.3 mb - 0.00 in0.0 mm 0.00 in0.0 mm
05:30 PM 54.4°F12.4°C 40.0°F4.4°C 58% 6.9 mph E11.1 kmh E 11.5 mph18.5 kmh 30.07 in1018.3 mb - 0.00 in0.0 mm 0.00 in0.0 mm
05:20 PM 54.9°F12.7°C 41.3°F5.2°C 60% 5.8 mph E9.3 kmh E 8.1 mph13.0 kmh 30.07 in1018.3 mb - 0.00 in0.0 mm 0.00 in0.0 mm
05:10 PM 54.3°F12.4°C 40.3°F4.6°C 59% 2.3 mph ENE3.7 kmh ENE 6.9 mph11.1 kmh 30.07 in1018.3 mb - 0.00 in0.0 mm 0.00 in0.0 mm
05:00 PM 54.1°F12.3°C 40.9°F4.9°C 61% 4.6 mph ENE7.4 kmh ENE 11.5 mph18.5 kmh 30.08 in1018.6 mb - 0.00 in0.0 mm 0.00 in0.0 mm
04:50 PM 53.6°F12.0°C 40.9°F4.9°C 62% 8.1 mph E13.0 kmh E 12.7 mph20.4 kmh 30.08 in1018.6 mb - 0.00 in0.0 mm 0.00 in0.0 mm
04:40 PM 53.4°F11.9°C 41.5°F5.3°C 64% 8.1 mph ENE13.0 kmh ENE 13.8 mph22.2 kmh 30.08 in1018.6 mb - 0.00 in0.0 mm 0.00 in0.0 mm
04:30 PM 53.4°F11.9°C 41.1°F5.1°C 63% 12.7 mph E20.4 kmh E 16.1 mph25.9 kmh 30.08 in1018.6 mb - 0.00 in0.0 mm 0.00 in0.0 mm
04:20 PM 53.7°F12.1°C 42.2°F5.7°C 65% 9.2 mph E14.8 kmh E 13.8 mph22.2 kmh 30.08 in1018.6 mb - 0.00 in0.0 mm 0.00 in0.0 mm
04:10 PM 53.5°F11.9°C 43.2°F6.2°C 68% 8.1 mph E13.0 kmh E 13.8 mph22.2 kmh 30.08 in1018.6 mb - 0.00 in0.0 mm 0.00 in0.0 mm
04:00 PM 53.2°F11.8°C 42.5°F5.8°C 67% 4.6 mph ENE7.4 kmh ENE 5.8 mph9.3 kmh 30.09 in1019.0 mb - 0.00 in0.0 mm 0.00 in0.0 mm
03:50 PM 53.6°F12.0°C 42.9°F6.1°C 67% 12.7 mph E20.4 kmh E 19.6 mph31.5 kmh 30.09 in1019.0 mb - 0.00 in0.0 mm 0.00 in0.0 mm
03:40 PM 53.6°F12.0°C 42.5°F5.8°C 66% 8.1 mph E13.0 kmh E 13.8 mph22.2 kmh 30.09 in1019.0 mb - 0.00 in0.0 mm 0.00 in0.0 mm
03:30 PM 53.9°F12.2°C 41.6°F5.3°C 63% 6.9 mph ENE11.1 kmh ENE 11.5 mph18.5 kmh 30.09 in1019.0 mb - 0.00 in0.0 mm 0.00 in0.0 mm
03:20 PM 54.3°F12.4°C 41.5°F5.3°C 62% 3.5 mph ENE5.6 kmh ENE 8.1 mph13.0 kmh 30.09 in1019.0 mb - 0.00 in0.0 mm 0.00 in0.0 mm
03:10 PM 53.5°F11.9°C 42.0°F5.6°C 65% 5.8 mph ENE9.3 kmh ENE 12.7 mph20.4 kmh 30.09 in1019.0 mb - 0.00 in0.0 mm 0.00 in0.0 mm
03:00 PM 53.3°F11.8°C 41.8°F5.4°C 65% 10.4 mph E16.7 kmh E 16.1 mph25.9 kmh 30.09 in1019.0 mb - 0.00 in0.0 mm 0.00 in0.0 mm
02:50 PM 53.2°F11.8°C 42.1°F5.6°C 66% 9.2 mph E14.8 kmh E 15.0 mph24.1 kmh 30.09 in1019.0 mb - 0.00 in0.0 mm 0.00 in0.0 mm
02:40 PM 53.8°F12.1°C 42.3°F5.7°C 65% 5.8 mph E9.3 kmh E 13.8 mph22.2 kmh 30.09 in1019.0 mb - 0.00 in0.0 mm 0.00 in0.0 mm
02:30 PM 53.7°F12.1°C 42.6°F5.9°C 66% 10.4 mph E16.7 kmh E 15.0 mph24.1 kmh 30.09 in1019.0 mb - 0.00 in0.0 mm 0.00 in0.0 mm
02:20 PM 53.9°F12.2°C 41.6°F5.3°C 63% 4.6 mph ENE7.4 kmh ENE 11.5 mph18.5 kmh 30.09 in1019.0 mb - 0.00 in0.0 mm 0.00 in0.0 mm
02:10 PM 53.4°F11.9°C 41.9°F5.5°C 65% 4.6 mph E7.4 kmh E 12.7 mph20.4 kmh 30.09 in1019.0 mb - 0.00 in0.0 mm 0.00 in0.0 mm
02:00 PM 53.5°F11.9°C 42.0°F5.6°C 65% 4.6 mph E7.4 kmh E 12.7 mph20.4 kmh 30.10 in1019.3 mb - 0.00 in0.0 mm 0.00 in0.0 mm
01:50 PM 53.6°F12.0°C 41.7°F5.4°C 64% 6.9 mph E11.1 kmh E 12.7 mph20.4 kmh 30.10 in1019.3 mb - 0.00 in0.0 mm 0.00 in0.0 mm
01:40 PM 53.4°F11.9°C 41.9°F5.5°C 65% 8.1 mph ENE13.0 kmh ENE 13.8 mph22.2 kmh 30.10 in1019.3 mb - 0.00 in0.0 mm 0.00 in0.0 mm
01:30 PM 52.8°F11.6°C 41.8°F5.4°C 66% 10.4 mph ENE16.7 kmh ENE 16.1 mph25.9 kmh 30.10 in1019.3 mb - 0.00 in0.0 mm 0.00 in0.0 mm
01:20 PM 53.3°F11.8°C 41.8°F5.4°C 65% 4.6 mph ENE7.4 kmh ENE 11.5 mph18.5 kmh 30.10 in1019.3 mb - 0.00 in0.0 mm 0.00 in0.0 mm
01:10 PM 53.6°F12.0°C 42.1°F5.6°C 65% 5.8 mph ENE9.3 kmh ENE 12.7 mph20.4 kmh 30.11 in1019.6 mb - 0.00 in0.0 mm 0.00 in0.0 mm
01:00 PM 54.1°F12.3°C 42.2°F5.7°C 64% 6.9 mph ENE11.1 kmh ENE 16.1 mph25.9 kmh 30.11 in1019.6 mb - 0.00 in0.0 mm 0.00 in0.0 mm
12:50 PM 54.1°F12.3°C 41.4°F5.2°C 62% 3.5 mph ENE5.6 kmh ENE 8.1 mph13.0 kmh 30.11 in1019.6 mb - 0.00 in0.0 mm 0.00 in0.0 mm
12:40 PM 54.1°F12.3°C 40.1°F4.5°C 59% 9.2 mph ENE14.8 kmh ENE 16.1 mph25.9 kmh 30.11 in1019.6 mb - 0.00 in0.0 mm 0.00 in0.0 mm
12:30 PM 54.2°F12.3°C 40.6°F4.8°C 60% 4.6 mph ENE7.4 kmh ENE 11.5 mph18.5 kmh 30.11 in1019.6 mb - 0.00 in0.0 mm 0.00 in0.0 mm
12:20 PM 54.3°F12.4°C 40.7°F4.8°C 60% 5.8 mph E9.3 kmh E 11.5 mph18.5 kmh 30.11 in1019.6 mb - 0.00 in0.0 mm 0.00 in0.0 mm
12:10 PM 53.8°F12.1°C 40.2°F4.6°C 60% 8.1 mph E13.0 kmh E 12.7 mph20.4 kmh 30.11 in1019.6 mb - 0.00 in0.0 mm 0.00 in0.0 mm
12:00 PM 54.0°F12.2°C 40.9°F4.9°C 61% 4.6 mph E7.4 kmh E 15.0 mph24.1 kmh 30.11 in1019.6 mb - 0.00 in0.0 mm 0.00 in0.0 mm
11:50 AM 54.0°F12.2°C 40.4°F4.7°C 60% 5.8 mph ENE9.3 kmh ENE 9.2 mph14.8 kmh 30.11 in1019.6 mb - 0.00 in0.0 mm 0.00 in0.0 mm
11:40 AM 54.2°F12.3°C 41.1°F5.1°C 61% 4.6 mph ENE7.4 kmh ENE 12.7 mph20.4 kmh 30.11 in1019.6 mb - 0.00 in0.0 mm 0.00 in0.0 mm
11:30 AM 54.5°F12.5°C 41.3°F5.2°C 61% 11.5 mph E18.5 kmh E 15.0 mph24.1 kmh 30.11 in1019.6 mb - 0.00 in0.0 mm 0.00 in0.0 mm
11:20 AM 54.5°F12.5°C 41.8°F5.4°C 62% 5.8 mph ENE9.3 kmh ENE 8.1 mph13.0 kmh 30.11 in1019.6 mb - 0.00 in0.0 mm 0.00 in0.0 mm
11:10 AM 53.6°F12.0°C 40.5°F4.7°C 61% 2.3 mph E3.7 kmh E 8.1 mph13.0 kmh 30.11 in1019.6 mb - 0.00 in0.0 mm 0.00 in0.0 mm
11:00 AM 53.5°F11.9°C 40.4°F4.7°C 61% 4.6 mph ENE7.4 kmh ENE 8.1 mph13.0 kmh 30.12 in1020.0 mb - 0.00 in0.0 mm 0.00 in0.0 mm
10:50 AM 53.3°F11.8°C 40.6°F4.8°C 62% 9.2 mph ENE14.8 kmh ENE 16.1 mph25.9 kmh 30.12 in1020.0 mb - 0.00 in0.0 mm 0.00 in0.0 mm
10:40 AM 53.3°F11.8°C 40.6°F4.8°C 62% 11.5 mph E18.5 kmh E 19.6 mph31.5 kmh 30.12 in1020.0 mb - 0.00 in0.0 mm 0.00 in0.0 mm
10:30 AM 53.4°F11.9°C 40.3°F4.6°C 61% 8.1 mph E13.0 kmh E 12.7 mph20.4 kmh 30.11 in1019.6 mb - 0.00 in0.0 mm 0.00 in0.0 mm
10:20 AM 52.8°F11.6°C 40.5°F4.7°C 63% 5.8 mph ENE9.3 kmh ENE 13.8 mph22.2 kmh 30.12 in1020.0 mb - 0.00 in0.0 mm 0.00 in0.0 mm
10:10 AM 52.9°F11.6°C 40.3°F4.6°C 62% 12.7 mph E20.4 kmh E 19.6 mph31.5 kmh 30.12 in1020.0 mb - 0.00 in0.0 mm 0.00 in0.0 mm
10:00 AM 52.4°F11.3°C 40.6°F4.8°C 64% 3.5 mph ENE5.6 kmh ENE 6.9 mph11.1 kmh 30.12 in1020.0 mb - 0.00 in0.0 mm 0.00 in0.0 mm
09:50 AM 52.0°F11.1°C 40.6°F4.8°C 65% 6.9 mph E11.1 kmh E 13.8 mph22.2 kmh 30.12 in1020.0 mb - 0.00 in0.0 mm 0.00 in0.0 mm
09:40 AM 51.9°F11.1°C 40.5°F4.7°C 65% 4.6 mph ENE7.4 kmh ENE 8.1 mph13.0 kmh 30.12 in1020.0 mb - 0.00 in0.0 mm 0.00 in0.0 mm
09:30 AM 51.7°F10.9°C 39.9°F4.4°C 64% 5.8 mph E9.3 kmh E 11.5 mph18.5 kmh 30.13 in1020.3 mb - 0.00 in0.0 mm 0.00 in0.0 mm
09:20 AM 51.5°F10.8°C 40.5°F4.7°C 66% 5.8 mph ENE9.3 kmh ENE 15.0 mph24.1 kmh 30.13 in1020.3 mb - 0.00 in0.0 mm 0.00 in0.0 mm
09:10 AM 51.6°F10.9°C 39.8°F4.3°C 64% 8.1 mph ENE13.0 kmh ENE 16.1 mph25.9 kmh 30.13 in1020.3 mb - 0.00 in0.0 mm 0.00 in0.0 mm
09:00 AM 51.8°F11.0°C 40.0°F4.4°C 64% 8.1 mph E13.0 kmh E 16.1 mph25.9 kmh 30.13 in1020.3 mb - 0.00 in0.0 mm 0.00 in0.0 mm
08:50 AM 52.1°F11.2°C 39.9°F4.4°C 63% 12.7 mph E20.4 kmh E 16.1 mph25.9 kmh 30.13 in1020.3 mb - 0.00 in0.0 mm 0.00 in0.0 mm
08:40 AM 52.5°F11.4°C 40.3°F4.6°C 63% 4.6 mph ENE7.4 kmh ENE 11.5 mph18.5 kmh 30.13 in1020.3 mb - 0.00 in0.0 mm 0.00 in0.0 mm
08:30 AM 53.2°F11.8°C 40.9°F4.9°C 63% 11.5 mph E18.5 kmh E 21.9 mph35.2 kmh 30.13 in1020.3 mb - 0.00 in0.0 mm 0.00 in0.0 mm
08:20 AM 52.3°F11.3°C 41.3°F5.2°C 66% 9.2 mph NE14.8 kmh NE 19.6 mph31.5 kmh 30.13 in1020.3 mb - 0.00 in0.0 mm 0.00 in0.0 mm
08:10 AM 53.2°F11.8°C 42.1°F5.6°C 66% 9.2 mph ENE14.8 kmh ENE 15.0 mph24.1 kmh 30.12 in1020.0 mb - 0.00 in0.0 mm 0.00 in0.0 mm
08:00 AM 53.3°F11.8°C 42.2°F5.7°C 66% 9.2 mph ENE14.8 kmh ENE 19.6 mph31.5 kmh 30.13 in1020.3 mb - 0.00 in0.0 mm 0.00 in0.0 mm
07:50 AM 53.4°F11.9°C 42.3°F5.7°C 66% 5.8 mph ENE9.3 kmh ENE 12.7 mph20.4 kmh 30.12 in1020.0 mb - 0.00 in0.0 mm 0.00 in0.0 mm
07:40 AM 53.2°F11.8°C 43.7°F6.5°C 70% 6.9 mph ENE11.1 kmh ENE 12.7 mph20.4 kmh 30.12 in1020.0 mb - 0.00 in0.0 mm 0.00 in0.0 mm
07:30 AM 53.2°F11.8°C 43.7°F6.5°C 70% 5.8 mph E9.3 kmh E 11.5 mph18.5 kmh 30.12 in1020.0 mb - 0.00 in0.0 mm 0.00 in0.0 mm
07:20 AM 52.8°F11.6°C 44.0°F6.7°C 72% 10.4 mph E16.7 kmh E 15.0 mph24.1 kmh 30.12 in1020.0 mb - 0.00 in0.0 mm 0.00 in0.0 mm
07:10 AM 53.0°F11.7°C 44.9°F7.2°C 74% 12.7 mph ENE20.4 kmh ENE 21.9 mph35.2 kmh 30.12 in1020.0 mb - 0.00 in0.0 mm 0.00 in0.0 mm
07:00 AM 53.0°F11.7°C 44.6°F7.0°C 73% 5.8 mph ENE9.3 kmh ENE 12.7 mph20.4 kmh 30.12 in1020.0 mb - 0.00 in0.0 mm 0.00 in0.0 mm
06:50 AM 52.9°F11.6°C 45.5°F7.5°C 76% 5.8 mph ENE9.3 kmh ENE 13.8 mph22.2 kmh 30.12 in1020.0 mb - 0.00 in0.0 mm 0.00 in0.0 mm
06:40 AM 53.0°F11.7°C 46.3°F7.9°C 78% 4.6 mph ENE7.4 kmh ENE 13.8 mph22.2 kmh 30.12 in1020.0 mb - 0.00 in0.0 mm 0.00 in0.0 mm
06:30 AM 52.9°F11.6°C 46.5°F8.1°C 79% 4.6 mph ENE7.4 kmh ENE 13.8 mph22.2 kmh 30.12 in1020.0 mb - 0.00 in0.0 mm 0.00 in0.0 mm
06:20 AM 52.5°F11.4°C 45.8°F7.7°C 78% 4.6 mph NE7.4 kmh NE 9.2 mph14.8 kmh 30.12 in1020.0 mb - 0.00 in0.0 mm 0.00 in0.0 mm
06:10 AM 52.0°F11.1°C 45.7°F7.6°C 79% 5.8 mph ENE9.3 kmh ENE 12.7 mph20.4 kmh 30.12 in1020.0 mb - 0.00 in0.0 mm 0.00 in0.0 mm
06:00 AM 51.6°F10.9°C 46.0°F7.8°C 81% 10.4 mph ENE16.7 kmh ENE 18.4 mph29.6 kmh 30.12 in1020.0 mb - 0.00 in0.0 mm 0.00 in0.0 mm
05:50 AM 51.5°F10.8°C 46.2°F7.9°C 82% 10.4 mph NE16.7 kmh NE 18.4 mph29.6 kmh 30.12 in1020.0 mb - 0.00 in0.0 mm 0.00 in0.0 mm
05:40 AM 51.6°F10.9°C 46.6°F8.1°C 83% 9.2 mph E14.8 kmh E 16.1 mph25.9 kmh 30.11 in1019.6 mb - 0.00 in0.0 mm 0.00 in0.0 mm
05:30 AM 51.2°F10.7°C 46.6°F8.1°C 84% 3.5 mph E5.6 kmh E 11.5 mph18.5 kmh 30.12 in1020.0 mb - 0.00 in0.0 mm 0.00 in0.0 mm
05:20 AM 51.3°F10.7°C 46.6°F8.1°C 84% 6.9 mph E11.1 kmh E 13.8 mph22.2 kmh 30.12 in1020.0 mb - 0.00 in0.0 mm 0.00 in0.0 mm
05:10 AM 51.4°F10.8°C 46.7°F8.2°C 84% 4.6 mph ENE7.4 kmh ENE 11.5 mph18.5 kmh 30.12 in1020.0 mb - 0.00 in0.0 mm 0.00 in0.0 mm
05:00 AM 51.6°F10.9°C 47.2°F8.4°C 85% Calm Calm 2.3 mph3.7 kmh 30.12 in1020.0 mb - 0.00 in0.0 mm 0.00 in0.0 mm
04:50 AM 51.6°F10.9°C 47.3°F8.5°C 85% 2.3 mph NNE3.7 kmh NNE 5.8 mph9.3 kmh 30.11 in1019.6 mb - 0.00 in0.0 mm 0.00 in0.0 mm
04:40 AM 51.7°F10.9°C 47.0°F8.3°C 84% 1.2 mph ENE1.9 kmh ENE 6.9 mph11.1 kmh 30.11 in1019.6 mb - 0.00 in0.0 mm 0.00 in0.0 mm
04:30 AM 51.7°F10.9°C 47.0°F8.3°C 84% 2.3 mph NE3.7 kmh NE 11.5 mph18.5 kmh 30.11 in1019.6 mb - 0.00 in0.0 mm 0.00 in0.0 mm
04:20 AM 51.7°F10.9°C 47.0°F8.3°C 84% 1.2 mph E1.9 kmh E 5.8 mph9.3 kmh 30.11 in1019.6 mb - 0.00 in0.0 mm 0.00 in0.0 mm
04:10 AM 51.9°F11.1°C 47.2°F8.4°C 84% 2.3 mph ENE3.7 kmh ENE 8.1 mph13.0 kmh 30.11 in1019.6 mb - 0.00 in0.0 mm 0.00 in0.0 mm
04:00 AM 52.1°F11.2°C 47.4°F8.6°C 84% 8.1 mph ENE13.0 kmh ENE 13.8 mph22.2 kmh 30.11 in1019.6 mb - 0.00 in0.0 mm 0.00 in0.0 mm
03:50 AM 52.5°F11.4°C 47.5°F8.6°C 83% 9.2 mph ENE14.8 kmh ENE 13.8 mph22.2 kmh 30.11 in1019.6 mb - 0.00 in0.0 mm 0.00 in0.0 mm
03:40 AM 53.0°F11.7°C 47.7°F8.7°C 82% 5.8 mph E9.3 kmh E 11.5 mph18.5 kmh 30.11 in1019.6 mb - 0.00 in0.0 mm 0.00 in0.0 mm
03:30 AM 53.3°F11.8°C 47.6°F8.7°C 81% 4.6 mph ENE7.4 kmh ENE 11.5 mph18.5 kmh 30.11 in1019.6 mb - 0.00 in0.0 mm 0.00 in0.0 mm
03:20 AM 53.6°F12.0°C 47.9°F8.8°C 81% 3.5 mph ENE5.6 kmh ENE 8.1 mph13.0 kmh 30.11 in1019.6 mb - 0.00 in0.0 mm 0.00 in0.0 mm
03:10 AM 53.8°F12.1°C 48.1°F8.9°C 81% 3.5 mph ENE5.6 kmh ENE 8.1 mph13.0 kmh 30.11 in1019.6 mb - 0.00 in0.0 mm 0.00 in0.0 mm
03:00 AM 53.7°F12.1°C 48.0°F8.9°C 81% 6.9 mph ENE11.1 kmh ENE 15.0 mph24.1 kmh 30.11 in1019.6 mb - 0.00 in0.0 mm 0.00 in0.0 mm
02:50 AM 53.8°F12.1°C 48.1°F8.9°C 81% 5.8 mph E9.3 kmh E 13.8 mph22.2 kmh 30.10 in1019.3 mb - 0.00 in0.0 mm 0.00 in0.0 mm
02:40 AM 53.8°F12.1°C 48.1°F8.9°C 81% 4.6 mph ENE7.4 kmh ENE 11.5 mph18.5 kmh 30.10 in1019.3 mb - 0.00 in0.0 mm 0.00 in0.0 mm
02:30 AM 53.7°F12.1°C 48.0°F8.9°C 81% 1.2 mph E1.9 kmh E 2.3 mph3.7 kmh 30.10 in1019.3 mb - 0.00 in0.0 mm 0.00 in0.0 mm
02:20 AM 53.6°F12.0°C 47.9°F8.8°C 81% 8.1 mph ENE13.0 kmh ENE 12.7 mph20.4 kmh 30.10 in1019.3 mb - 0.00 in0.0 mm 0.00 in0.0 mm
02:10 AM 53.3°F11.8°C 47.6°F8.7°C 81% 2.3 mph NE3.7 kmh NE 5.8 mph9.3 kmh 30.10 in1019.3 mb - 0.00 in0.0 mm 0.00 in0.0 mm
02:00 AM 53.0°F11.7°C 47.3°F8.5°C 81% 3.5 mph E5.6 kmh E 6.9 mph11.1 kmh 30.10 in1019.3 mb - 0.00 in0.0 mm 0.00 in0.0 mm
01:50 AM 52.6°F11.4°C 47.3°F8.5°C 82% 2.3 mph E3.7 kmh E 5.8 mph9.3 kmh 30.10 in1019.3 mb - 0.00 in0.0 mm 0.00 in0.0 mm
01:40 AM 52.5°F11.4°C 46.8°F8.2°C 81% 2.3 mph E3.7 kmh E 6.9 mph11.1 kmh 30.10 in1019.3 mb - 0.00 in0.0 mm 0.00 in0.0 mm
01:30 AM 52.4°F11.3°C 46.8°F8.2°C 81% Calm Calm -- 30.11 in1019.6 mb - 0.00 in0.0 mm 0.00 in0.0 mm
01:20 AM 52.3°F11.3°C 46.6°F8.1°C 81% 2.3 mph E3.7 kmh E 5.8 mph9.3 kmh 30.10 in1019.3 mb - 0.00 in0.0 mm 0.00 in0.0 mm
01:10 AM 51.8°F11.0°C 46.2°F7.9°C 81% 1.2 mph NE1.9 kmh NE 2.3 mph3.7 kmh 30.10 in1019.3 mb - 0.00 in0.0 mm 0.00 in0.0 mm
01:00 AM 51.4°F10.8°C 45.8°F7.7°C 81% Calm Calm 1.2 mph1.9 kmh 30.11 in1019.6 mb - 0.00 in0.0 mm 0.00 in0.0 mm
12:50 AM 51.1°F10.6°C 45.5°F7.5°C 81% 1.2 mph E1.9 kmh E 4.6 mph7.4 kmh 30.11 in1019.6 mb - 0.00 in0.0 mm 0.00 in0.0 mm
12:40 AM 51.0°F10.6°C 45.0°F7.2°C 80% Calm Calm 2.3 mph3.7 kmh 30.11 in1019.6 mb - 0.00 in0.0 mm 0.00 in0.0 mm
12:30 AM 51.0°F10.6°C 45.1°F7.3°C 80% Calm Calm 4.6 mph7.4 kmh 30.11 in1019.6 mb - 0.00 in0.0 mm 0.00 in0.0 mm
12:20 AM 51.1°F10.6°C 45.2°F7.3°C 80% 1.2 mph ENE1.9 kmh ENE 5.8 mph9.3 kmh 30.11 in1019.6 mb - 0.00 in0.0 mm 0.00 in0.0 mm
12:10 AM 51.3°F10.7°C 45.0°F7.2°C 79% 2.3 mph NE3.7 kmh NE 6.9 mph11.1 kmh 30.11 in1019.6 mb - 0.00 in0.0 mm 0.00 in0.0 mm
12:00 AM 51.5°F10.8°C 45.2°F7.3°C 79% 2.3 mph ENE3.7 kmh ENE 5.8 mph9.3 kmh 30.11 in1019.6 mb - 0.00 in0.0 mm 0.00 in0.0 mm